Time;durP1;ratioP1;P1;durP2;ratioP2;P2;SDS_P1;SDS_P2;PMS_P1;PMS_P2;Temp;Humidity;BMP_temperature;BMP_pressure;BME280_temperature;BME280_humidity;BME280_pressure;Samples;Min_cycle;Max_cycle;Signal;HPM_P1;HPM_P2
2021/04/14 00:01:41;;;;;;;7.95;1.88;;;7.10;72.00;;;;;;5034893;28;20049;-73
2021/04/14 00:04:07;;;;;;;7.07;1.77;;;7.10;71.90;;;;;;5033431;28;20030;-72
2021/04/14 00:06:36;;;;;;;6.22;1.70;;;7.10;71.90;;;;;;5031350;28;20509;-73
2021/04/14 00:09:03;;;;;;;7.43;1.70;;;7.00;72.10;;;;;;5036641;28;20025;-73
2021/04/14 00:11:28;;;;;;;5.55;2.28;;;7.00;71.90;;;;;;5038518;28;20528;-72
2021/04/14 00:13:54;;;;;;;4.85;1.88;;;6.90;72.10;;;;;;5051403;28;20115;-72
2021/04/14 00:16:23;;;;;;;5.88;1.70;;;6.80;72.50;;;;;;5041622;28;20017;-72
2021/04/14 00:18:49;;;;;;;7.78;2.00;;;6.90;72.50;;;;;;5033205;28;20501;-73
2021/04/14 00:21:16;;;;;;;7.68;1.70;;;6.80;72.50;;;;;;5030838;28;20037;-73
2021/04/14 00:23:41;;;;;;;7.95;1.88;;;6.80;72.70;;;;;;5017715;28;20033;-72
2021/04/14 00:26:07;;;;;;;11.68;1.90;;;6.80;72.80;;;;;;5038766;28;20396;-72
2021/04/14 00:28:33;;;;;;;4.45;1.42;;;6.80;72.80;;;;;;5031018;28;20025;-73
2021/04/14 00:30:59;;;;;;;7.43;2.38;;;6.80;73.10;;;;;;5037413;28;20075;-72
2021/04/14 00:33:25;;;;;;;5.57;1.70;;;6.70;73.30;;;;;;5050014;28;21893;-72
2021/04/14 00:35:51;;;;;;;7.50;1.50;;;6.70;73.20;;;;;;5027163;28;20137;-72
2021/04/14 00:38:19;;;;;;;5.88;1.80;;;6.70;72.90;;;;;;5014176;28;20053;-72
2021/04/14 00:40:48;;;;;;;10.65;1.73;;;6.70;73.10;;;;;;5033768;28;20045;-72
2021/04/14 00:43:18;;;;;;;9.10;1.83;;;6.70;72.90;;;;;;5037348;28;20477;-72
2021/04/14 00:45:44;;;;;;;9.80;1.90;;;6.70;72.80;;;;;;5027902;28;20040;-72
2021/04/14 00:48:10;;;;;;;6.18;1.73;;;6.70;72.90;;;;;;5027081;28;20390;-71
2021/04/14 00:50:37;;;;;;;7.05;2.42;;;6.70;73.00;;;;;;5036900;28;20549;-71
2021/04/14 00:53:03;;;;;;;4.80;1.70;;;6.60;72.90;;;;;;5052541;28;20112;-71
2021/04/14 00:55:31;;;;;;;9.48;1.73;;;6.60;73.20;;;;;;5034940;28;20036;-71
2021/04/14 00:57:57;;;;;;;7.43;2.42;;;6.60;73.30;;;;;;5039542;28;20025;-71
2021/04/14 01:00:42;;;;;;;5.40;1.60;;;6.50;73.50;;;;;;5030372;28;20049;-72
2021/04/14 01:03:21;;;;;;;6.80;1.65;;;6.50;73.80;;;;;;5051581;28;20101;-72
2021/04/14 01:05:49;;;;;;;7.85;2.17;;;6.40;73.80;;;;;;5029571;28;20477;-71
2021/04/14 01:08:15;;;;;;;11.02;2.65;;;6.40;74.00;;;;;;5026462;28;20029;-70
2021/04/14 01:10:40;;;;;;;5.38;1.60;;;6.40;73.90;;;;;;5028768;28;20037;-71
2021/04/14 01:13:06;;;;;;;5.93;1.80;;;6.40;74.10;;;;;;5042528;28;20075;-71
2021/04/14 01:15:35;;;;;;;7.18;1.50;;;6.30;74.20;;;;;;5012995;28;20120;-72
2021/04/14 01:18:01;;;;;;;5.13;1.42;;;6.30;74.20;;;;;;5038905;28;20485;-71
2021/04/14 01:20:28;;;;;;;7.63;2.13;;;6.20;75.40;;;;;;5051536;28;20041;-71
2021/04/14 01:22:53;;;;;;;11.07;1.70;;;6.30;74.90;;;;;;5030300;28;20354;-71
2021/04/14 01:25:23;;;;;;;4.93;1.65;;;6.30;75.10;;;;;;5031324;28;20032;-71
2021/04/14 01:27:48;;;;;;;9.68;2.20;;;6.20;75.30;;;;;;5012712;28;20029;-71
2021/04/14 01:30:19;;;;;;;6.85;1.58;;;6.20;75.30;;;;;;5030538;28;20029;-71
2021/04/14 01:32:44;;;;;;;8.00;2.35;;;6.20;75.60;;;;;;5030374;28;20656;-70
2021/04/14 01:35:12;;;;;;;8.98;2.25;;;6.20;76.20;;;;;;5031972;28;20079;-70
2021/04/14 01:37:38;;;;;;;9.15;2.33;;;6.20;75.90;;;;;;5030025;28;20493;-70
2021/04/14 01:40:04;;;;;;;12.32;2.20;;;6.20;76.30;;;;;;5033098;28;20375;-70
2021/04/14 01:42:30;;;;;;;10.80;2.30;;;6.00;77.50;;;;;;5031575;28;20067;-71
2021/04/14 01:44:55;;;;;;;5.65;1.58;;;6.00;77.60;;;;;;5031745;28;20033;-71
2021/04/14 01:47:21;;;;;;;7.28;1.65;;;6.00;77.50;;;;;;5038333;28;20103;-72
2021/04/14 01:49:46;;;;;;;6.00;1.83;;;5.90;78.30;;;;;;5051630;28;20021;-71
2021/04/14 01:52:12;;;;;;;5.80;2.00;;;5.90;78.30;;;;;;5042530;28;20025;-71
2021/04/14 01:54:37;;;;;;;8.80;1.80;;;5.90;78.60;;;;;;5031844;28;20116;-71
2021/04/14 01:57:04;;;;;;;10.75;2.15;;;5.90;79.30;;;;;;5022591;28;20018;-71
2021/04/14 01:59:29;;;;;;;6.93;1.85;;;5.90;78.70;;;;;;5031355;28;20061;-71
2021/04/14 02:01:55;;;;;;;7.05;2.25;;;5.90;78.90;;;;;;5030080;28;20129;-71
2021/04/14 02:04:20;;;;;;;6.72;1.77;;;5.80;79.00;;;;;;5049122;28;20032;-71
2021/04/14 02:06:46;;;;;;;7.75;1.88;;;5.90;79.30;;;;;;5033165;28;20041;-70
2021/04/14 02:09:11;;;;;;;6.88;1.92;;;5.90;79.40;;;;;;5039254;28;20117;-70
2021/04/14 02:11:37;;;;;;;5.95;1.75;;;5.80;80.10;;;;;;5029423;28;20025;-70
2021/04/14 02:14:02;;;;;;;6.10;1.77;;;5.80;80.50;;;;;;5046500;28;20021;-70
2021/04/14 02:16:28;;;;;;;11.77;2.25;;;5.80;80.00;;;;;;5034015;28;20416;-71
2021/04/14 02:18:54;;;;;;;8.23;1.88;;;5.80;80.70;;;;;;5023999;28;20032;-71
2021/04/14 02:21:21;;;;;;;8.68;2.45;;;5.70;80.50;;;;;;5035450;28;20084;-70
2021/04/14 02:23:47;;;;;;;9.07;2.15;;;5.70;80.60;;;;;;5047544;28;20033;-70
2021/04/14 02:26:20;;;;;;;9.20;2.05;;;5.70;80.60;;;;;;5038699;28;20040;-71
2021/04/14 02:28:46;;;;;;;10.52;2.00;;;5.70;81.20;;;;;;5047976;28;20028;-71
2021/04/14 02:31:14;;;;;;;7.60;1.83;;;5.70;81.50;;;;;;5038520;28;20025;-71
2021/04/14 02:33:39;;;;;;;9.90;2.72;;;5.60;81.50;;;;;;5043716;28;20029;-71
2021/04/14 02:36:06;;;;;;;11.13;2.13;;;5.60;82.30;;;;;;5039800;28;20022;-71
2021/04/14 02:38:32;;;;;;;7.13;2.45;;;5.60;82.50;;;;;;5034357;28;20052;-71
2021/04/14 02:40:57;;;;;;;9.38;2.35;;;5.60;82.70;;;;;;5034398;28;20068;-71
2021/04/14 02:43:23;;;;;;;11.48;2.67;;;5.60;82.10;;;;;;5035907;28;20047;-72
2021/04/14 02:45:49;;;;;;;9.05;2.05;;;5.60;82.30;;;;;;5048013;28;20029;-72
2021/04/14 02:48:15;;;;;;;8.70;2.22;;;5.60;82.80;;;;;;5035826;28;20033;-72
2021/04/14 02:50:41;;;;;;;7.50;2.20;;;5.50;82.60;;;;;;5034720;28;20059;-72
2021/04/14 02:53:07;;;;;;;10.20;2.13;;;5.50;82.80;;;;;;5035468;28;20429;-72
2021/04/14 02:55:34;;;;;;;8.93;2.92;;;5.40;84.00;;;;;;5033133;28;20075;-72
2021/04/14 02:57:59;;;;;;;13.25;2.13;;;5.40;84.70;;;;;;5036422;28;20017;-72
2021/04/14 03:00:26;;;;;;;9.32;1.80;;;5.40;84.00;;;;;;5035914;28;20645;-72
2021/04/14 03:02:52;;;;;;;4.78;1.73;;;5.50;84.10;;;;;;5043322;28;20026;-72
2021/04/14 03:05:22;;;;;;;10.70;2.70;;;5.40;84.40;;;;;;5015182;28;20536;-73
2021/04/14 03:07:47;;;;;;;9.07;1.85;;;5.40;85.10;;;;;;5021773;28;20474;-72
2021/04/14 03:10:13;;;;;;;10.00;2.22;;;5.30;85.50;;;;;;5033585;28;20071;-72
2021/04/14 03:12:40;;;;;;;9.68;2.92;;;5.40;85.10;;;;;;5025036;28;20030;-72
2021/04/14 03:15:07;;;;;;;10.80;2.30;;;5.30;86.00;;;;;;5033290;28;20033;-71
2021/04/14 03:17:33;;;;;;;8.77;2.78;;;5.30;85.40;;;;;;5042566;28;20025;-72
2021/04/14 03:19:59;;;;;;;6.47;2.03;;;5.40;85.00;;;;;;5054439;28;20037;-72
2021/04/14 03:22:24;;;;;;;12.98;2.40;;;5.40;84.80;;;;;;5044688;28;20398;-72
2021/04/14 03:24:50;;;;;;;13.35;2.42;;;5.30;85.30;;;;;;5036375;28;20029;-72
2021/04/14 03:27:15;;;;;;;5.93;2.15;;;5.30;85.90;;;;;;5044402;28;20029;-72
2021/04/14 03:29:41;;;;;;;11.57;2.60;;;5.20;86.10;;;;;;5035614;28;20545;-72
2021/04/14 03:32:07;;;;;;;9.25;2.50;;;5.20;86.20;;;;;;5037892;28;20029;-73
2021/04/14 03:34:32;;;;;;;8.80;2.30;;;5.20;85.90;;;;;;5054027;28;20036;-70
2021/04/14 03:36:58;;;;;;;9.98;2.45;;;5.20;86.80;;;;;;5036497;28;20103;-70
2021/04/14 03:39:23;;;;;;;6.80;2.20;;;5.20;86.70;;;;;;5035139;28;20060;-70
2021/04/14 03:41:49;;;;;;;6.32;2.17;;;5.20;86.90;;;;;;5042114;28;20040;-70
2021/04/14 03:44:14;;;;;;;7.50;2.47;;;5.30;86.80;;;;;;5034706;28;20041;-70
2021/04/14 03:46:40;;;;;;;8.23;2.08;;;5.10;87.80;;;;;;5031200;28;20128;-71
2021/04/14 03:49:05;;;;;;;7.57;2.70;;;5.10;87.30;;;;;;5050808;28;20057;-72
2021/04/14 03:51:31;;;;;;;6.85;2.30;;;5.10;87.60;;;;;;5041263;28;20030;-72
2021/04/14 03:53:57;;;;;;;12.13;1.92;;;5.10;87.30;;;;;;5048110;28;20029;-71
2021/04/14 03:56:23;;;;;;;12.23;2.42;;;5.10;87.80;;;;;;5025245;28;20047;-71
2021/04/14 03:58:54;;;;;;;8.32;1.95;;;5.00;88.10;;;;;;5041484;28;20037;-71
2021/04/14 04:01:28;;;;;;;8.70;2.88;;;5.00;87.70;;;;;;5052110;28;20057;-71
2021/04/14 04:03:54;;;;;;;6.90;2.47;;;5.00;88.50;;;;;;5047677;28;20044;-70
2021/04/14 04:06:21;;;;;;;8.52;2.45;;;5.10;88.40;;;;;;5038222;28;20071;-72
2021/04/14 04:08:47;;;;;;;9.55;3.10;;;5.00;88.30;;;;;;5035603;28;20517;-72
2021/04/14 04:11:13;;;;;;;11.38;2.42;;;5.00;88.10;;;;;;5036824;28;20033;-72
2021/04/14 04:13:39;;;;;;;9.55;2.03;;;5.10;88.30;;;;;;5022764;28;20493;-72
2021/04/14 04:16:05;;;;;;;6.28;2.10;;;5.00;88.60;;;;;;5015753;28;20116;-72
2021/04/14 04:18:31;;;;;;;8.45;2.05;;;5.00;88.50;;;;;;5023997;28;20116;-72
2021/04/14 04:20:57;;;;;;;7.53;2.30;;;5.00;88.70;;;;;;5033027;28;20052;-72
2021/04/14 04:23:23;;;;;;;9.68;2.55;;;5.00;88.80;;;;;;5030303;28;20385;-72
2021/04/14 04:25:49;;;;;;;6.50;2.10;;;5.00;89.50;;;;;;5035453;28;20121;-72
2021/04/14 04:28:14;;;;;;;9.50;2.90;;;4.90;89.10;;;;;;5041580;28;20507;-71
2021/04/14 04:30:40;;;;;;;10.43;2.55;;;4.90;89.60;;;;;;5052808;28;20412;-72
2021/04/14 04:33:06;;;;;;;11.05;2.30;;;4.90;90.30;;;;;;5042143;28;20527;-73
2021/04/14 04:35:32;;;;;;;10.40;2.72;;;4.90;90.00;;;;;;5043075;28;20049;-73
2021/04/14 04:37:59;;;;;;;11.65;3.15;;;4.80;90.10;;;;;;5034391;28;20125;-73
2021/04/14 04:40:25;;;;;;;9.90;2.83;;;4.90;90.20;;;;;;5050351;28;20036;-73
2021/04/14 04:42:51;;;;;;;13.68;2.80;;;4.90;90.40;;;;;;5040699;28;20029;-73
2021/04/14 04:45:20;;;;;;;11.43;2.67;;;4.90;90.20;;;;;;5033629;28;20056;-72
2021/04/14 04:47:46;;;;;;;7.25;2.40;;;4.90;90.10;;;;;;5036996;28;20029;-73
2021/04/14 04:50:12;;;;;;;11.20;3.10;;;5.00;90.00;;;;;;5052487;28;20017;-72
2021/04/14 04:52:37;;;;;;;10.50;3.80;;;5.00;90.30;;;;;;5042892;28;20071;-72
2021/04/14 04:55:05;;;;;;;13.75;3.08;;;5.00;90.10;;;;;;5052783;28;20120;-73
2021/04/14 04:57:30;;;;;;;8.55;2.63;;;5.00;90.00;;;;;;5039655;28;20032;-73
2021/04/14 04:59:56;;;;;;;9.57;2.45;;;5.10;90.10;;;;;;5032365;28;20037;-72
2021/04/14 05:02:21;;;;;;;10.98;2.85;;;5.10;90.10;;;;;;5032081;28;20026;-73
2021/04/14 05:04:47;;;;;;;9.55;3.25;;;5.10;90.20;;;;;;5034377;28;20539;-74
2021/04/14 05:07:12;;;;;;;9.43;2.90;;;5.10;90.20;;;;;;5019205;28;20022;-74
2021/04/14 05:09:38;;;;;;;10.13;2.60;;;5.10;90.20;;;;;;5051987;28;20025;-74
2021/04/14 05:12:04;;;;;;;14.95;3.58;;;5.10;90.10;;;;;;5033028;28;20022;-74
2021/04/14 05:14:29;;;;;;;12.57;3.10;;;5.10;90.20;;;;;;5051941;28;20057;-72
2021/04/14 05:16:54;;;;;;;8.20;2.83;;;5.10;90.30;;;;;;5044557;28;20112;-72
2021/04/14 05:19:20;;;;;;;10.98;3.85;;;5.20;90.30;;;;;;5013612;28;20037;-73
2021/04/14 05:21:46;;;;;;;14.40;3.10;;;5.20;90.50;;;;;;5020819;28;20351;-73
2021/04/14 05:24:12;;;;;;;12.23;2.80;;;5.10;90.40;;;;;;5044299;28;20465;-73
2021/04/14 05:26:37;;;;;;;8.52;3.28;;;5.30;90.40;;;;;;5033035;28;20489;-73
2021/04/14 05:29:04;;;;;;;10.52;3.50;;;5.30;90.30;;;;;;5030415;28;20394;-72
2021/04/14 05:31:31;;;;;;;12.10;3.35;;;5.40;90.20;;;;;;5031712;28;20025;-73
2021/04/14 05:33:58;;;;;;;8.80;2.95;;;5.50;90.30;;;;;;5046052;28;20036;-72
2021/04/14 05:36:24;;;;;;;13.70;3.50;;;5.50;90.20;;;;;;5031435;28;20033;-72
2021/04/14 05:38:50;;;;;;;14.35;4.35;;;5.50;90.20;;;;;;5044085;28;20033;-72
2021/04/14 05:41:16;;;;;;;8.70;3.15;;;5.60;90.30;;;;;;5047623;28;20237;-72
2021/04/14 05:43:42;;;;;;;7.28;2.70;;;5.70;90.20;;;;;;5041497;28;20477;-72
2021/04/14 05:46:13;;;;;;;10.93;4.40;;;5.70;90.20;;;;;;5029483;28;20017;-72
2021/04/14 05:48:40;;;;;;;15.93;4.07;;;5.70;90.20;;;;;;5036164;28;20029;-72
2021/04/14 05:51:08;;;;;;;15.35;3.97;;;5.80;90.10;;;;;;5046625;28;20501;-72
2021/04/14 05:53:36;;;;;;;12.43;3.45;;;5.80;90.10;;;;;;5022758;28;20039;-72
2021/04/14 05:56:02;;;;;;;11.77;3.38;;;5.80;90.00;;;;;;5049192;28;20500;-72
2021/04/14 05:58:28;;;;;;;12.00;3.40;;;5.80;90.00;;;;;;5041830;28;20033;-73
2021/04/14 06:00:54;;;;;;;16.02;4.05;;;5.80;90.10;;;;;;5050548;28;20497;-72
2021/04/14 06:03:21;;;;;;;11.45;3.92;;;5.70;90.30;;;;;;5022880;28;20035;-72
2021/04/14 06:05:47;;;;;;;10.38;3.70;;;5.70;90.10;;;;;;5044388;28;20026;-72
2021/04/14 06:08:12;;;;;;;12.38;5.15;;;5.70;90.30;;;;;;5021594;28;20025;-72
2021/04/14 06:10:38;;;;;;;10.88;3.40;;;5.80;90.40;;;;;;5044364;28;20033;-72
2021/04/14 06:13:03;;;;;;;10.82;3.50;;;5.80;90.20;;;;;;5026218;28;20018;-72
2021/04/14 06:15:32;;;;;;;9.23;3.38;;;5.90;90.20;;;;;;5010290;28;20058;-73
2021/04/14 06:17:59;;;;;;;13.73;3.85;;;5.90;90.30;;;;;;5036089;28;20075;-72
2021/04/14 06:20:26;;;;;;;10.77;3.60;;;5.80;90.20;;;;;;5050897;28;20543;-73
2021/04/14 06:22:52;;;;;;;8.82;3.53;;;5.80;90.10;;;;;;5038355;28;20028;-73
2021/04/14 06:25:21;;;;;;;10.73;3.15;;;5.80;90.20;;;;;;5035183;28;20021;-73
2021/04/14 06:28:05;;;;;;;7.10;3.08;;;5.90;90.20;;;;;;5036646;28;20063;-73
2021/04/14 06:30:32;;;;;;;11.10;3.80;;;6.00;90.10;;;;;;5033202;28;20478;-73
2021/04/14 06:32:58;;;;;;;17.27;4.07;;;6.00;90.00;;;;;;5029346;28;20044;-73
2021/04/14 06:35:24;;;;;;;15.90;4.43;;;6.00;90.00;;;;;;5030664;28;20401;-73
2021/04/14 06:37:50;;;;;;;12.40;4.07;;;6.00;90.00;;;;;;5031695;28;20107;-73
2021/04/14 06:40:38;;;;;;;13.70;4.13;;;6.00;90.10;;;;;;5030774;28;20466;-73
2021/04/14 06:43:37;;;;;;;16.27;4.43;;;6.00;90.00;;;;;;5030189;28;20517;-73
2021/04/14 06:46:14;;;;;;;9.68;3.67;;;5.90;90.10;;;;;;5044119;28;20515;-73
2021/04/14 06:49:00;;;;;;;10.77;3.58;;;5.90;90.30;;;;;;5027719;28;20032;-73
2021/04/14 06:51:42;;;;;;;16.63;4.63;;;6.00;90.20;;;;;;5031225;28;20029;-72
2021/04/14 06:54:30;;;;;;;9.45;3.40;;;6.00;90.20;;;;;;5032595;28;20049;-72
2021/04/14 06:57:03;;;;;;;16.00;3.97;;;6.10;90.10;;;;;;5030714;28;20033;-72
2021/04/14 06:59:31;;;;;;;13.52;3.58;;;6.20;90.00;;;;;;5044707;28;20018;-72
2021/04/14 07:02:04;;;;;;;10.13;4.22;;;6.30;89.90;;;;;;5029805;28;20083;-72
2021/04/14 07:04:46;;;;;;;13.32;4.00;;;6.40;89.80;;;;;;5031482;28;20044;-72
2021/04/14 07:07:22;;;;;;;13.77;3.22;;;6.50;89.90;;;;;;5013306;28;20038;-71
2021/04/14 07:09:49;;;;;;;11.65;3.65;;;6.50;89.50;;;;;;5045647;28;20033;-70
2021/04/14 07:12:18;;;;;;;10.98;3.30;;;6.60;89.30;;;;;;5023834;28;20049;-71
2021/04/14 07:14:45;;;;;;;17.58;4.10;;;6.60;89.20;;;;;;5046932;28;20487;-71
2021/04/14 07:17:25;;;;;;;12.18;3.58;;;6.60;89.10;;;;;;5032861;28;20029;-67
2021/04/14 07:20:10;;;;;;;14.45;3.90;;;6.70;88.90;;;;;;5035656;28;20120;-67
2021/04/14 07:23:00;;;;;;;;;;;6.80;89.80;;;;;;5019357;28;20041;-67
2021/04/14 07:26:04;;;;;;;11.13;3.80;;;6.80;88.80;;;;;;5030855;28;20014;-67
2021/04/14 07:29:20;;;;;;;11.82;4.22;;;6.90;88.60;;;;;;5043948;28;20033;-69
2021/04/14 07:31:57;;;;;;;12.38;4.07;;;6.90;88.20;;;;;;5030914;28;20029;-67
2021/04/14 07:34:55;;;;;;;17.45;4.35;;;7.00;88.20;;;;;;5052695;28;20386;-67
2021/04/14 07:37:47;;;;;;;14.85;4.47;;;7.10;87.80;;;;;;5021934;28;20022;-67
2021/04/14 07:40:19;;;;;;;12.20;4.05;;;7.20;87.00;;;;;;5053880;28;20037;-68
2021/04/14 07:43:11;;;;;;;11.00;3.70;;;7.30;87.00;;;;;;5049847;28;20033;-67
2021/04/14 07:45:38;;;;;;;12.55;3.50;;;7.40;86.70;;;;;;5030879;28;20060;-67
2021/04/14 07:48:38;;;;;;;13.02;4.10;;;7.50;86.70;;;;;;5040772;28;20029;-67
2021/04/14 07:51:11;;;;;;;13.20;4.30;;;7.60;85.40;;;;;;5029531;28;20045;-67
2021/04/14 07:53:42;;;;;;;11.85;4.00;;;7.70;85.10;;;;;;5026070;28;20041;-67
2021/04/14 07:56:21;;;;;;;9.13;3.95;;;7.80;84.70;;;;;;5033097;28;20026;-67
2021/04/14 07:58:52;;;;;;;19.70;3.33;;;7.90;84.40;;;;;;5018869;28;20068;-67
2021/04/14 08:01:21;;;;;;;8.98;3.70;;;8.00;84.20;;;;;;5031969;28;20493;-67
2021/04/14 08:03:47;;;;;;;9.55;3.30;;;8.10;82.60;;;;;;5040499;28;20037;-67
2021/04/14 08:06:17;;;;;;;8.23;3.22;;;8.20;82.60;;;;;;5041433;28;20033;-67
2021/04/14 08:08:44;;;;;;;10.82;3.58;;;8.20;82.50;;;;;;5044871;28;20029;-67
2021/04/14 08:11:17;;;;;;;11.13;3.05;;;8.30;81.50;;;;;;5042664;28;20112;-67
2021/04/14 08:13:43;;;;;;;9.68;3.03;;;8.30;81.70;;;;;;5038593;28;20044;-67
2021/04/14 08:16:16;;;;;;;7.32;3.25;;;8.40;81.70;;;;;;5031601;28;20030;-68
2021/04/14 08:18:54;;;;;;;10.40;3.22;;;8.50;81.80;;;;;;5027852;28;20507;-67
2021/04/14 08:21:34;;;;;;;14.32;3.90;;;8.70;81.70;;;;;;5014015;28;20328;-67
2021/04/14 08:24:04;;;;;;;7.95;3.10;;;8.80;79.50;;;;;;5044400;28;20374;-68
2021/04/14 08:26:30;;;;;;;8.40;3.42;;;8.80;79.80;;;;;;5013094;28;20121;-67
2021/04/14 08:29:08;;;;;;;9.82;3.60;;;8.90;79.60;;;;;;5043752;28;20033;-68
2021/04/14 08:31:45;;;;;;;9.77;3.10;;;9.00;78.70;;;;;;5033034;28;20107;-68
2021/04/14 08:34:30;;;;;;;10.23;3.22;;;9.10;78.00;;;;;;5037137;28;20045;-68
2021/04/14 08:37:00;;;;;;;9.10;2.95;;;9.10;77.90;;;;;;5029557;28;20084;-67
2021/04/14 08:39:57;;;;;;;12.40;4.13;;;9.10;76.60;;;;;;5037018;28;20074;-67
2021/04/14 08:42:23;;;;;;;6.97;2.50;;;9.20;76.60;;;;;;5026239;28;20072;-67
2021/04/14 08:44:51;;;;;;;9.75;3.13;;;9.20;74.80;;;;;;5032342;28;20030;-68
2021/04/14 08:47:24;;;;;;;7.55;3.05;;;9.20;75.00;;;;;;5020228;28;20119;-68
2021/04/14 08:49:57;;;;;;;14.85;3.10;;;9.20;75.10;;;;;;5026275;28;20060;-67
2021/04/14 08:52:24;;;;;;;8.40;2.75;;;9.30;73.90;;;;;;5030838;28;20036;-67
2021/04/14 08:54:49;;;;;;;9.00;2.88;;;9.20;73.80;;;;;;5035754;28;20552;-67
2021/04/14 08:57:18;;;;;;;7.93;3.10;;;9.20;73.80;;;;;;5034537;28;20021;-67
2021/04/14 08:59:43;;;;;;;11.10;3.13;;;9.30;74.10;;;;;;5022906;28;20026;-67
2021/04/14 09:02:14;;;;;;;7.60;2.90;;;9.40;73.20;;;;;;5015116;28;20113;-67
2021/04/14 09:04:44;;;;;;;7.53;3.05;;;9.40;73.60;;;;;;5034980;28;20064;-67
2021/04/14 09:07:14;;;;;;;10.23;3.35;;;9.50;73.20;;;;;;5028187;28;20036;-66
2021/04/14 09:09:49;;;;;;;8.27;2.60;;;9.50;71.40;;;;;;5028867;28;20026;-65
2021/04/14 09:12:16;;;;;;;6.68;3.05;;;9.60;72.20;;;;;;5033260;28;20128;-65
2021/04/14 09:14:43;;;;;;;9.15;2.85;;;9.70;72.20;;;;;;5037387;28;20064;-67
2021/04/14 09:17:17;;;;;;;8.85;2.65;;;9.80;71.90;;;;;;5015994;28;20092;-66
2021/04/14 09:19:49;;;;;;;9.90;2.67;;;9.90;71.70;;;;;;5039576;28;20037;-66
2021/04/14 09:22:15;;;;;;;10.65;3.03;;;10.00;71.00;;;;;;5030736;28;20034;-66
2021/04/14 09:24:50;;;;;;;7.95;3.00;;;10.10;70.00;;;;;;5030448;28;20033;-65
2021/04/14 09:27:36;;;;;;;10.55;3.35;;;10.10;69.40;;;;;;5028838;28;20387;-67
2021/04/14 09:30:32;;;;;;;8.95;2.55;;;10.10;66.70;;;;;;5031321;28;20080;-65
2021/04/14 09:33:06;;;;;;;5.50;2.40;;;10.10;68.40;;;;;;5030946;28;20467;-67
2021/04/14 09:35:31;;;;;;;10.30;2.80;;;10.10;67.10;;;;;;5033602;28;20034;-68
2021/04/14 09:38:19;;;;;;;13.27;2.75;;;10.10;66.50;;;;;;5026890;28;20049;-68
2021/04/14 09:40:45;;;;;;;8.75;2.65;;;10.20;65.80;;;;;;5030759;28;20037;-67
2021/04/14 09:43:25;;;;;;;6.18;2.67;;;10.40;66.30;;;;;;5031625;28;20024;-67
2021/04/14 09:46:02;;;;;;;8.52;2.75;;;10.50;65.40;;;;;;5033613;28;20040;-66
2021/04/14 09:48:48;;;;;;;8.35;2.65;;;10.60;63.90;;;;;;5031425;28;20497;-66
2021/04/14 09:51:35;;;;;;;9.77;2.83;;;10.50;62.80;;;;;;5031587;28;20179;-66
2021/04/14 09:54:12;;;;;;;6.55;2.30;;;10.50;62.10;;;;;;5028002;28;20113;-66
2021/04/14 09:56:46;;;;;;;8.77;2.45;;;10.40;61.30;;;;;;5031749;28;20036;-66
2021/04/14 09:59:19;;;;;;;7.30;2.40;;;10.30;61.30;;;;;;5033351;28;20029;-67
2021/04/14 10:01:49;;;;;;;5.38;2.20;;;10.30;61.20;;;;;;5030185;28;20058;-67
2021/04/14 10:04:19;;;;;;;8.35;2.20;;;10.20;61.80;;;;;;5030912;28;20486;-67
2021/04/14 10:06:46;;;;;;;9.45;2.25;;;10.20;62.10;;;;;;5028542;28;20095;-66
2021/04/14 10:09:24;;;;;;;9.43;2.45;;;10.20;61.30;;;;;;5030719;28;20037;-66
2021/04/14 10:11:50;;;;;;;5.97;2.40;;;10.20;62.10;;;;;;5030799;28;20075;-66
2021/04/14 10:14:24;;;;;;;7.60;2.33;;;10.20;62.00;;;;;;5029645;28;20416;-66
2021/04/14 10:17:03;;;;;;;6.22;2.38;;;10.20;62.40;;;;;;5031466;28;20071;-67
2021/04/14 10:19:30;;;;;;;11.68;2.25;;;10.40;62.70;;;;;;5030601;28;20037;-66
2021/04/14 10:22:04;;;;;;;7.40;2.30;;;10.40;62.00;;;;;;5029413;28;20061;-66
2021/04/14 10:24:29;;;;;;;5.50;2.00;;;10.50;61.00;;;;;;5029329;28;20521;-66
2021/04/14 10:26:56;;;;;;;7.70;2.08;;;10.70;60.30;;;;;;5030748;28;20113;-66
2021/04/14 10:29:26;;;;;;;9.57;2.03;;;10.80;58.20;;;;;;5030780;28;20053;-67
2021/04/14 10:31:56;;;;;;;9.00;3.00;;;10.90;58.00;;;;;;5029025;28;20055;-66
2021/04/14 10:34:27;;;;;;;7.47;1.90;;;11.00;58.10;;;;;;5030725;28;20103;-66
2021/04/14 10:36:54;;;;;;;5.60;1.90;;;11.00;56.40;;;;;;5012213;28;20021;-68
2021/04/14 10:39:33;;;;;;;11.43;2.53;;;11.00;56.40;;;;;;5031261;28;20033;-67
2021/04/14 10:42:21;;;;;;;5.22;1.77;;;11.00;55.70;;;;;;5032088;28;20529;-68
2021/04/14 10:44:48;;;;;;;6.47;2.42;;;11.00;55.70;;;;;;5034350;28;20029;-68
2021/04/14 10:47:26;;;;;;;7.40;1.88;;;11.00;56.50;;;;;;5035163;28;20025;-68
2021/04/14 10:49:59;;;;;;;5.90;2.17;;;11.10;56.20;;;;;;5033548;28;20021;-68
2021/04/14 10:52:28;;;;;;;8.35;2.88;;;11.00;54.40;;;;;;5002135;28;20581;-69
2021/04/14 10:54:57;;;;;;;6.40;1.38;;;11.00;55.00;;;;;;5032249;28;20052;-67
2021/04/14 10:57:29;;;;;;;6.10;1.92;;;11.10;51.80;;;;;;5033837;28;20051;-68
2021/04/14 11:00:12;;;;;;;5.72;1.92;;;11.20;51.40;;;;;;5027226;28;20382;-68
2021/04/14 11:02:42;;;;;;;9.00;2.05;;;11.20;50.90;;;;;;5029894;28;20033;-67
2021/04/14 11:05:11;;;;;;;7.18;2.60;;;11.30;51.20;;;;;;5034735;28;20017;-68
2021/04/14 11:07:37;;;;;;;9.13;2.20;;;11.20;50.20;;;;;;5015541;28;20076;-69
2021/04/14 11:10:08;;;;;;;7.72;2.50;;;11.20;49.70;;;;;;5034212;28;20041;-69
2021/04/14 11:12:34;;;;;;;7.63;2.13;;;11.10;50.40;;;;;;5033475;28;20033;-68
2021/04/14 11:15:13;;;;;;;4.82;2.10;;;11.00;51.50;;;;;;5033971;28;20038;-68
2021/04/14 11:17:39;;;;;;;8.18;2.08;;;11.10;51.80;;;;;;5031626;28;20026;-69
2021/04/14 11:20:07;;;;;;;7.32;2.22;;;11.10;52.20;;;;;;5032762;28;20057;-69
2021/04/14 11:22:45;;;;;;;4.65;2.20;;;11.20;52.10;;;;;;5031753;28;20446;-69
2021/04/14 11:25:30;;;;;;;5.00;1.85;;;11.30;50.90;;;;;;5026319;28;20535;-68
2021/04/14 11:28:08;;;;;;;6.63;2.47;;;11.40;51.00;;;;;;5013058;28;20050;-69
2021/04/14 11:30:53;;;;;;;5.53;2.47;;;11.50;51.60;;;;;;5014471;28;20486;-69
2021/04/14 11:33:20;;;;;;;;;;;11.70;50.40;;;;;;5015855;28;20431;-69
2021/04/14 11:35:52;;;;;;;3.30;1.30;;;11.70;48.50;;;;;;5032481;28;19908;-69
2021/04/14 11:38:28;;;;;;;3.75;1.55;;;11.70;48.80;;;;;;5030860;28;20032;-68
2021/04/14 11:40:57;;;;;;;6.50;1.85;;;11.80;48.30;;;;;;5028156;28;20038;-68
2021/04/14 11:43:28;;;;;;;5.00;1.50;;;11.80;48.20;;;;;;5028981;28;20373;-71
2021/04/14 11:45:57;;;;;;;5.63;1.60;;;11.90;48.10;;;;;;5030554;28;20068;-70
2021/04/14 11:48:32;;;;;;;5.75;1.65;;;12.00;47.90;;;;;;5028481;28;20036;-70
2021/04/14 11:51:09;;;;;;;4.65;1.65;;;11.90;47.60;;;;;;5029557;28;20034;-71
2021/04/14 11:53:47;;;;;;;4.20;1.83;;;11.90;48.20;;;;;;5032248;28;20025;-70
2021/04/14 11:56:29;;;;;;;7.72;2.28;;;11.80;46.30;;;;;;5032393;28;20063;-71
2021/04/14 11:58:54;;;;;;;7.40;1.65;;;11.70;47.10;;;;;;5031360;28;20052;-69
2021/04/14 12:01:26;;;;;;;4.95;1.75;;;11.60;47.30;;;;;;5031933;28;20053;-69
2021/04/14 12:03:52;;;;;;;3.75;1.60;;;11.50;47.00;;;;;;5033239;28;20029;-70
2021/04/14 12:06:18;;;;;;;6.68;1.90;;;11.40;46.60;;;;;;5015589;28;20025;-70
2021/04/14 12:08:43;;;;;;;5.95;1.70;;;11.40;47.50;;;;;;5032523;28;20037;-70
2021/04/14 12:11:20;;;;;;;4.93;1.80;;;11.40;46.80;;;;;;5033630;28;20057;-70
2021/04/14 12:13:45;;;;;;;6.45;1.52;;;11.20;46.00;;;;;;5031166;28;20052;-71
2021/04/14 12:16:11;;;;;;;3.08;1.52;;;11.10;46.30;;;;;;5033083;28;20029;-69
2021/04/14 12:18:37;;;;;;;5.38;1.85;;;11.10;45.80;;;;;;5009226;28;20073;-69
2021/04/14 12:21:02;;;;;;;5.60;1.67;;;10.90;46.40;;;;;;5033193;28;20060;-70
2021/04/14 12:23:28;;;;;;;8.80;2.25;;;10.70;47.30;;;;;;5032570;28;20135;-70
2021/04/14 12:25:53;;;;;;;3.17;1.70;;;10.60;47.50;;;;;;5033853;28;20029;-70
2021/04/14 12:28:19;;;;;;;7.53;2.08;;;10.60;48.10;;;;;;5031516;28;20600;-70
2021/04/14 12:30:44;;;;;;;5.95;2.75;;;10.60;48.40;;;;;;5015166;28;20070;-69
2021/04/14 12:33:11;;;;;;;5.93;2.00;;;10.70;48.40;;;;;;5032152;28;20103;-70
2021/04/14 12:35:36;;;;;;;3.90;1.55;;;10.70;48.20;;;;;;5012173;28;20221;-70
2021/04/14 12:38:04;;;;;;;10.50;2.13;;;10.60;47.90;;;;;;5031876;28;20124;-70
2021/04/14 12:40:29;;;;;;;7.20;1.70;;;10.50;47.80;;;;;;5032469;28;20069;-70
2021/04/14 12:42:55;;;;;;;5.50;1.60;;;10.30;48.40;;;;;;5032392;28;20065;-70
2021/04/14 12:45:42;;;;;;;5.47;1.90;;;10.30;48.80;;;;;;5032862;28;20026;-70
2021/04/14 12:48:17;;;;;;;8.50;2.25;;;10.30;50.30;;;;;;5014200;28;20100;-70
2021/04/14 12:50:52;;;;;;;6.45;1.83;;;10.20;52.70;;;;;;5032622;28;20026;-70
2021/04/14 12:53:18;;;;;;;4.65;1.80;;;10.00;55.60;;;;;;5031205;28;20112;-70
2021/04/14 12:55:47;;;;;;;7.53;1.80;;;10.00;56.80;;;;;;5031818;28;20109;-69
2021/04/14 12:58:20;;;;;;;5.75;2.00;;;10.00;58.00;;;;;;5015254;28;20110;-70
2021/04/14 13:00:48;;;;;;;7.95;2.22;;;10.10;58.30;;;;;;5013745;28;20107;-70
2021/04/14 13:03:27;;;;;;;5.78;2.08;;;10.20;59.00;;;;;;5024184;28;20022;-70
2021/04/14 13:05:59;;;;;;;4.55;1.80;;;10.30;59.50;;;;;;5026253;28;20500;-70